Terminal Aerodrome Forecast
Issued by NWS

Home | Current Version | Previous Version | Text Only | Print | Product List | Glossary On
Versions: 1 2 3 4 5 6 7 8 9 10 11 12
000
FTUS46 KSTO 221735
TAFSAC
TAF
KSAC 221735Z 2218/2318 14009KT P6SM OVC015
      TEMPO 2218/2220 4SM -SHRA BR OVC009
     FM222100 33006KT P6SM BKN030
     FM230600 VRB05KT 4SM BR OVC007=

USA.gov is the U.S. government's official web portal to all federal, state and local government web resources and services.